sensor_id;sensor_type;location;lat;lon;timestamp;temperature;humidity
38480;DHT22;62333;51.980;5.934;2023-04-25T00:00:26;9.70;90.90
38480;DHT22;62333;51.980;5.934;2023-04-25T00:02:52;9.70;90.90
38480;DHT22;62333;51.980;5.934;2023-04-25T00:05:17;9.70;90.80
38480;DHT22;62333;51.980;5.934;2023-04-25T00:07:44;9.70;90.80
38480;DHT22;62333;51.980;5.934;2023-04-25T00:10:11;9.70;90.80
38480;DHT22;62333;51.980;5.934;2023-04-25T00:12:37;9.70;90.80
38480;DHT22;62333;51.980;5.934;2023-04-25T00:15:03;9.60;90.70
38480;DHT22;62333;51.980;5.934;2023-04-25T00:17:29;9.60;90.80
38480;DHT22;62333;51.980;5.934;2023-04-25T00:19:54;9.50;90.70
38480;DHT22;62333;51.980;5.934;2023-04-25T00:22:21;9.50;90.80
38480;DHT22;62333;51.980;5.934;2023-04-25T00:24:47;9.50;90.80
38480;DHT22;62333;51.980;5.934;2023-04-25T00:27:12;9.40;91.10
38480;DHT22;62333;51.980;5.934;2023-04-25T00:29:38;9.40;90.80
38480;DHT22;62333;51.980;5.934;2023-04-25T00:32:04;9.40;90.90
38480;DHT22;62333;51.980;5.934;2023-04-25T00:34:29;9.40;90.90
38480;DHT22;62333;51.980;5.934;2023-04-25T00:36:55;9.30;90.90
38480;DHT22;62333;51.980;5.934;2023-04-25T00:39:21;9.30;90.90
38480;DHT22;62333;51.980;5.934;2023-04-25T00:41:46;9.30;90.90
38480;DHT22;62333;51.980;5.934;2023-04-25T00:44:13;9.30;90.90
38480;DHT22;62333;51.980;5.934;2023-04-25T00:46:42;9.30;90.90
38480;DHT22;62333;51.980;5.934;2023-04-25T00:49:08;9.30;90.80
38480;DHT22;62333;51.980;5.934;2023-04-25T00:51:34;9.20;90.80
38480;DHT22;62333;51.980;5.934;2023-04-25T00:54:01;9.20;90.80
38480;DHT22;62333;51.980;5.934;2023-04-25T00:56:27;9.20;90.80
38480;DHT22;62333;51.980;5.934;2023-04-25T00:58:53;9.20;90.80
38480;DHT22;62333;51.980;5.934;2023-04-25T01:01:22;9.20;90.90
38480;DHT22;62333;51.980;5.934;2023-04-25T01:03:49;9.20;90.90
38480;DHT22;62333;51.980;5.934;2023-04-25T01:06:16;9.20;91.00
38480;DHT22;62333;51.980;5.934;2023-04-25T01:08:42;9.10;91.10
38480;DHT22;62333;51.980;5.934;2023-04-25T01:11:07;9.10;91.10
38480;DHT22;62333;51.980;5.934;2023-04-25T01:13:34;9.10;91.20
38480;DHT22;62333;51.980;5.934;2023-04-25T01:16:01;9.10;91.20
38480;DHT22;62333;51.980;5.934;2023-04-25T01:18:27;9.10;91.30
38480;DHT22;62333;51.980;5.934;2023-04-25T01:20:53;9.10;91.30
38480;DHT22;62333;51.980;5.934;2023-04-25T01:23:23;9.00;91.30
38480;DHT22;62333;51.980;5.934;2023-04-25T01:25:49;9.00;91.40
38480;DHT22;62333;51.980;5.934;2023-04-25T01:28:15;9.00;91.40
38480;DHT22;62333;51.980;5.934;2023-04-25T01:30:41;9.00;91.40
38480;DHT22;62333;51.980;5.934;2023-04-25T01:33:08;9.00;91.50
38480;DHT22;62333;51.980;5.934;2023-04-25T01:35:34;9.00;91.50
38480;DHT22;62333;51.980;5.934;2023-04-25T01:38:00;9.00;91.50
38480;DHT22;62333;51.980;5.934;2023-04-25T01:40:26;9.00;91.50
38480;DHT22;62333;51.980;5.934;2023-04-25T01:42:52;9.00;91.60
38480;DHT22;62333;51.980;5.934;2023-04-25T01:45:18;9.00;91.60
38480;DHT22;62333;51.980;5.934;2023-04-25T01:47:44;8.90;91.60
38480;DHT22;62333;51.980;5.934;2023-04-25T01:50:14;8.90;91.60
38480;DHT22;62333;51.980;5.934;2023-04-25T01:52:40;8.90;91.60
38480;DHT22;62333;51.980;5.934;2023-04-25T01:55:06;8.90;91.60
38480;DHT22;62333;51.980;5.934;2023-04-25T01:57:32;9.00;91.60
38480;DHT22;62333;51.980;5.934;2023-04-25T01:59:59;9.00;91.60
38480;DHT22;62333;51.980;5.934;2023-04-25T02:02:25;9.00;91.50
38480;DHT22;62333;51.980;5.934;2023-04-25T02:04:51;9.00;91.50
38480;DHT22;62333;51.980;5.934;2023-04-25T02:07:17;9.00;91.50
38480;DHT22;62333;51.980;5.934;2023-04-25T02:09:43;9.00;91.40
38480;DHT22;62333;51.980;5.934;2023-04-25T02:12:10;9.00;91.40
38480;DHT22;62333;51.980;5.934;2023-04-25T02:14:35;9.00;91.40
38480;DHT22;62333;51.980;5.934;2023-04-25T02:17:01;9.00;91.40
38480;DHT22;62333;51.980;5.934;2023-04-25T02:19:27;9.00;91.60
38480;DHT22;62333;51.980;5.934;2023-04-25T02:21:53;9.00;91.30
38480;DHT22;62333;51.980;5.934;2023-04-25T02:24:18;8.90;91.30
38480;DHT22;62333;51.980;5.934;2023-04-25T02:26:44;9.00;91.30
38480;DHT22;62333;51.980;5.934;2023-04-25T02:29:10;8.90;91.20
38480;DHT22;62333;51.980;5.934;2023-04-25T02:31:36;9.00;91.30
38480;DHT22;62333;51.980;5.934;2023-04-25T02:34:01;8.90;91.20
38480;DHT22;62333;51.980;5.934;2023-04-25T02:36:27;8.90;91.20
38480;DHT22;62333;51.980;5.934;2023-04-25T02:38:55;8.90;91.20
38480;DHT22;62333;51.980;5.934;2023-04-25T02:41:21;8.90;91.20
38480;DHT22;62333;51.980;5.934;2023-04-25T02:43:46;8.90;91.20
38480;DHT22;62333;51.980;5.934;2023-04-25T02:46:12;8.90;91.10
38480;DHT22;62333;51.980;5.934;2023-04-25T02:48:38;8.90;91.10
38480;DHT22;62333;51.980;5.934;2023-04-25T02:51:03;8.90;91.10
38480;DHT22;62333;51.980;5.934;2023-04-25T02:53:29;8.80;91.00
38480;DHT22;62333;51.980;5.934;2023-04-25T02:55:55;8.80;91.00
38480;DHT22;62333;51.980;5.934;2023-04-25T02:58:23;8.80;91.00
38480;DHT22;62333;51.980;5.934;2023-04-25T03:00:49;8.80;91.00
38480;DHT22;62333;51.980;5.934;2023-04-25T03:03:15;8.70;90.90
38480;DHT22;62333;51.980;5.934;2023-04-25T03:05:43;8.70;90.90
38480;DHT22;62333;51.980;5.934;2023-04-25T03:08:09;8.70;90.90
38480;DHT22;62333;51.980;5.934;2023-04-25T03:10:35;8.70;90.90
38480;DHT22;62333;51.980;5.934;2023-04-25T03:13:00;8.70;90.90
38480;DHT22;62333;51.980;5.934;2023-04-25T03:15:26;8.60;90.80
38480;DHT22;62333;51.980;5.934;2023-04-25T03:17:52;8.60;90.80
38480;DHT22;62333;51.980;5.934;2023-04-25T03:20:17;8.60;90.80
38480;DHT22;62333;51.980;5.934;2023-04-25T03:22:43;8.60;90.80
38480;DHT22;62333;51.980;5.934;2023-04-25T03:25:09;8.60;90.80
38480;DHT22;62333;51.980;5.934;2023-04-25T03:27:35;8.50;90.70
38480;DHT22;62333;51.980;5.934;2023-04-25T03:30:01;8.50;90.70
38480;DHT22;62333;51.980;5.934;2023-04-25T03:32:26;8.50;90.70
38480;DHT22;62333;51.980;5.934;2023-04-25T03:34:52;8.50;90.70
38480;DHT22;62333;51.980;5.934;2023-04-25T03:37:18;8.50;90.70
38480;DHT22;62333;51.980;5.934;2023-04-25T03:39:43;8.50;90.70
38480;DHT22;62333;51.980;5.934;2023-04-25T03:42:09;8.50;90.70
38480;DHT22;62333;51.980;5.934;2023-04-25T03:44:35;8.40;90.60
38480;DHT22;62333;51.980;5.934;2023-04-25T03:47:00;8.40;90.60
38480;DHT22;62333;51.980;5.934;2023-04-25T03:49:26;8.40;90.60
38480;DHT22;62333;51.980;5.934;2023-04-25T03:51:52;8.40;90.70
38480;DHT22;62333;51.980;5.934;2023-04-25T03:54:17;8.30;90.70
38480;DHT22;62333;51.980;5.934;2023-04-25T03:56:43;8.30;90.70
38480;DHT22;62333;51.980;5.934;2023-04-25T03:59:09;8.30;90.70
38480;DHT22;62333;51.980;5.934;2023-04-25T04:01:34;8.30;90.70
38480;DHT22;62333;51.980;5.934;2023-04-25T04:04:00;8.30;90.70
38480;DHT22;62333;51.980;5.934;2023-04-25T04:06:26;8.30;90.70
38480;DHT22;62333;51.980;5.934;2023-04-25T04:08:52;8.20;90.70
38480;DHT22;62333;51.980;5.934;2023-04-25T04:11:18;8.20;90.70
38480;DHT22;62333;51.980;5.934;2023-04-25T04:13:43;8.20;90.70
38480;DHT22;62333;51.980;5.934;2023-04-25T04:16:09;8.20;90.70
38480;DHT22;62333;51.980;5.934;2023-04-25T04:18:35;8.20;90.70
38480;DHT22;62333;51.980;5.934;2023-04-25T04:21:01;8.20;90.70
38480;DHT22;62333;51.980;5.934;2023-04-25T04:23:26;8.20;90.70
38480;DHT22;62333;51.980;5.934;2023-04-25T04:25:54;8.10;90.60
38480;DHT22;62333;51.980;5.934;2023-04-25T04:28:20;8.10;90.70
38480;DHT22;62333;51.980;5.934;2023-04-25T04:30:47;8.00;90.70
38480;DHT22;62333;51.980;5.934;2023-04-25T04:33:13;8.00;90.70
38480;DHT22;62333;51.980;5.934;2023-04-25T04:35:40;8.00;90.80
38480;DHT22;62333;51.980;5.934;2023-04-25T04:38:07;8.00;90.80
38480;DHT22;62333;51.980;5.934;2023-04-25T04:40:32;7.90;90.80
38480;DHT22;62333;51.980;5.934;2023-04-25T04:42:58;7.90;90.80
38480;DHT22;62333;51.980;5.934;2023-04-25T04:45:24;7.90;90.80
38480;DHT22;62333;51.980;5.934;2023-04-25T04:47:50;7.90;90.80
38480;DHT22;62333;51.980;5.934;2023-04-25T04:50:15;7.90;90.80
38480;DHT22;62333;51.980;5.934;2023-04-25T04:52:41;7.90;90.80
38480;DHT22;62333;51.980;5.934;2023-04-25T04:55:08;7.90;90.80
38480;DHT22;62333;51.980;5.934;2023-04-25T04:57:34;8.00;90.80
38480;DHT22;62333;51.980;5.934;2023-04-25T05:00:00;8.00;90.80
38480;DHT22;62333;51.980;5.934;2023-04-25T05:02:26;8.00;90.80
38480;DHT22;62333;51.980;5.934;2023-04-25T05:04:52;8.00;90.70
38480;DHT22;62333;51.980;5.934;2023-04-25T05:07:18;8.00;90.70
38480;DHT22;62333;51.980;5.934;2023-04-25T05:09:44;8.10;90.70
38480;DHT22;62333;51.980;5.934;2023-04-25T05:12:10;8.10;90.70
38480;DHT22;62333;51.980;5.934;2023-04-25T05:14:36;8.10;90.60
38480;DHT22;62333;51.980;5.934;2023-04-25T05:17:01;8.20;90.60
38480;DHT22;62333;51.980;5.934;2023-04-25T05:19:30;8.20;90.60
38480;DHT22;62333;51.980;5.934;2023-04-25T05:21:55;8.20;90.60
38480;DHT22;62333;51.980;5.934;2023-04-25T05:24:21;8.20;90.60
38480;DHT22;62333;51.980;5.934;2023-04-25T05:26:47;8.20;90.50
38480;DHT22;62333;51.980;5.934;2023-04-25T05:29:12;8.30;90.50
38480;DHT22;62333;51.980;5.934;2023-04-25T05:31:38;8.30;90.50
38480;DHT22;62333;51.980;5.934;2023-04-25T05:34:04;8.30;90.50
38480;DHT22;62333;51.980;5.934;2023-04-25T05:36:29;8.30;90.50
38480;DHT22;62333;51.980;5.934;2023-04-25T05:38:56;8.30;90.50
38480;DHT22;62333;51.980;5.934;2023-04-25T05:41:22;8.40;90.50
38480;DHT22;62333;51.980;5.934;2023-04-25T05:43:47;8.40;90.50
38480;DHT22;62333;51.980;5.934;2023-04-25T05:46:15;8.40;90.50
38480;DHT22;62333;51.980;5.934;2023-04-25T05:48:42;8.40;90.40
38480;DHT22;62333;51.980;5.934;2023-04-25T05:51:08;8.40;90.40
38480;DHT22;62333;51.980;5.934;2023-04-25T05:53:34;8.50;90.50
38480;DHT22;62333;51.980;5.934;2023-04-25T05:56:00;8.50;90.40
38480;DHT22;62333;51.980;5.934;2023-04-25T05:58:26;8.50;90.50
38480;DHT22;62333;51.980;5.934;2023-04-25T06:00:51;8.50;90.40
38480;DHT22;62333;51.980;5.934;2023-04-25T06:03:17;8.50;90.40
38480;DHT22;62333;51.980;5.934;2023-04-25T06:05:43;8.60;90.40
38480;DHT22;62333;51.980;5.934;2023-04-25T06:08:09;8.60;90.40
38480;DHT22;62333;51.980;5.934;2023-04-25T06:10:36;8.60;90.40
38480;DHT22;62333;51.980;5.934;2023-04-25T06:13:02;8.60;90.40
38480;DHT22;62333;51.980;5.934;2023-04-25T06:15:28;8.60;90.40
38480;DHT22;62333;51.980;5.934;2023-04-25T06:17:54;8.60;90.40
38480;DHT22;62333;51.980;5.934;2023-04-25T06:20:20;8.60;90.40
38480;DHT22;62333;51.980;5.934;2023-04-25T06:22:49;8.70;90.40
38480;DHT22;62333;51.980;5.934;2023-04-25T06:25:15;8.70;90.30
38480;DHT22;62333;51.980;5.934;2023-04-25T06:27:40;8.80;90.30
38480;DHT22;62333;51.980;5.934;2023-04-25T06:30:06;8.80;90.30
38480;DHT22;62333;51.980;5.934;2023-04-25T06:32:32;8.90;90.20
38480;DHT22;62333;51.980;5.934;2023-04-25T06:35:00;8.90;90.20
38480;DHT22;62333;51.980;5.934;2023-04-25T06:37:25;9.00;90.10
38480;DHT22;62333;51.980;5.934;2023-04-25T06:39:51;9.10;90.10
38480;DHT22;62333;51.980;5.934;2023-04-25T06:42:17;9.10;90.10
38480;DHT22;62333;51.980;5.934;2023-04-25T06:44:42;9.20;90.10
38480;DHT22;62333;51.980;5.934;2023-04-25T06:47:08;9.30;90.10
38480;DHT22;62333;51.980;5.934;2023-04-25T06:49:34;9.40;90.00
38480;DHT22;62333;51.980;5.934;2023-04-25T06:51:59;9.50;90.00
38480;DHT22;62333;51.980;5.934;2023-04-25T06:54:25;9.50;89.90
38480;DHT22;62333;51.980;5.934;2023-04-25T06:56:53;9.60;89.80
38480;DHT22;62333;51.980;5.934;2023-04-25T06:59:19;9.70;89.70
38480;DHT22;62333;51.980;5.934;2023-04-25T07:01:44;9.80;89.50
38480;DHT22;62333;51.980;5.934;2023-04-25T07:04:10;9.80;89.90
38480;DHT22;62333;51.980;5.934;2023-04-25T07:06:36;9.90;89.20
38480;DHT22;62333;51.980;5.934;2023-04-25T07:09:10;10.00;89.10
38480;DHT22;62333;51.980;5.934;2023-04-25T07:11:36;10.10;88.90
38480;DHT22;62333;51.980;5.934;2023-04-25T07:14:02;10.10;88.70
38480;DHT22;62333;51.980;5.934;2023-04-25T07:16:28;10.10;88.60
38480;DHT22;62333;51.980;5.934;2023-04-25T07:18:54;10.20;88.50
38480;DHT22;62333;51.980;5.934;2023-04-25T07:21:20;10.30;88.40
38480;DHT22;62333;51.980;5.934;2023-04-25T07:23:45;10.40;88.30
38480;DHT22;62333;51.980;5.934;2023-04-25T07:26:12;10.50;88.00
38480;DHT22;62333;51.980;5.934;2023-04-25T07:28:38;10.60;87.40
38480;DHT22;62333;51.980;5.934;2023-04-25T07:31:03;10.80;87.30
38480;DHT22;62333;51.980;5.934;2023-04-25T07:33:29;10.90;86.90
38480;DHT22;62333;51.980;5.934;2023-04-25T07:35:55;11.10;86.70
38480;DHT22;62333;51.980;5.934;2023-04-25T07:38:21;11.30;85.80
38480;DHT22;62333;51.980;5.934;2023-04-25T07:40:50;11.50;85.40
38480;DHT22;62333;51.980;5.934;2023-04-25T07:43:16;11.60;85.10
38480;DHT22;62333;51.980;5.934;2023-04-25T07:45:44;11.70;84.90
38480;DHT22;62333;51.980;5.934;2023-04-25T07:48:10;11.90;84.70
38480;DHT22;62333;51.980;5.934;2023-04-25T07:50:36;12.00;84.20
38480;DHT22;62333;51.980;5.934;2023-04-25T07:53:02;12.00;83.90
38480;DHT22;62333;51.980;5.934;2023-04-25T07:55:28;12.10;83.70
38480;DHT22;62333;51.980;5.934;2023-04-25T07:57:54;12.10;83.30
38480;DHT22;62333;51.980;5.934;2023-04-25T08:00:20;12.20;82.70
38480;DHT22;62333;51.980;5.934;2023-04-25T08:02:45;12.20;81.70
38480;DHT22;62333;51.980;5.934;2023-04-25T08:05:11;12.20;81.40
38480;DHT22;62333;51.980;5.934;2023-04-25T08:07:40;12.20;81.10
38480;DHT22;62333;51.980;5.934;2023-04-25T08:10:06;12.30;80.70
38480;DHT22;62333;51.980;5.934;2023-04-25T08:12:32;12.30;80.50
38480;DHT22;62333;51.980;5.934;2023-04-25T08:14:58;12.30;80.30
38480;DHT22;62333;51.980;5.934;2023-04-25T08:17:23;12.40;80.00
38480;DHT22;62333;51.980;5.934;2023-04-25T08:19:49;12.50;79.60
38480;DHT22;62333;51.980;5.934;2023-04-25T08:22:15;12.70;79.20
38480;DHT22;62333;51.980;5.934;2023-04-25T08:24:41;12.90;78.80
38480;DHT22;62333;51.980;5.934;2023-04-25T08:27:07;13.10;77.70
38480;DHT22;62333;51.980;5.934;2023-04-25T08:29:34;13.20;76.90
38480;DHT22;62333;51.980;5.934;2023-04-25T08:32:00;13.30;76.10
38480;DHT22;62333;51.980;5.934;2023-04-25T08:34:26;13.40;74.30
38480;DHT22;62333;51.980;5.934;2023-04-25T08:36:52;13.50;73.70
38480;DHT22;62333;51.980;5.934;2023-04-25T08:39:17;13.80;73.70
38480;DHT22;62333;51.980;5.934;2023-04-25T08:41:43;13.90;72.20
38480;DHT22;62333;51.980;5.934;2023-04-25T08:44:11;14.10;71.30
38480;DHT22;62333;51.980;5.934;2023-04-25T08:46:38;14.10;70.50
38480;DHT22;62333;51.980;5.934;2023-04-25T08:49:06;14.20;70.70
38480;DHT22;62333;51.980;5.934;2023-04-25T08:51:32;14.10;69.60
38480;DHT22;62333;51.980;5.934;2023-04-25T08:54:11;14.00;68.30
38480;DHT22;62333;51.980;5.934;2023-04-25T08:56:44;13.80;68.30
38480;DHT22;62333;51.980;5.934;2023-04-25T08:59:12;13.70;68.00
38480;DHT22;62333;51.980;5.934;2023-04-25T09:01:38;13.60;68.30
38480;DHT22;62333;51.980;5.934;2023-04-25T09:04:03;13.60;68.40
38480;DHT22;62333;51.980;5.934;2023-04-25T09:06:30;13.60;68.20
38480;DHT22;62333;51.980;5.934;2023-04-25T09:09:03;13.60;68.30
38480;DHT22;62333;51.980;5.934;2023-04-25T09:11:29;13.50;68.50
38480;DHT22;62333;51.980;5.934;2023-04-25T09:17:04;13.50;68.50
38480;DHT22;62333;51.980;5.934;2023-04-25T09:19:35;13.30;68.60
38480;DHT22;62333;51.980;5.934;2023-04-25T09:22:04;13.20;68.60
38480;DHT22;62333;51.980;5.934;2023-04-25T09:24:38;13.10;68.10
38480;DHT22;62333;51.980;5.934;2023-04-25T09:27:09;12.90;66.70
38480;DHT22;62333;51.980;5.934;2023-04-25T09:29:37;12.80;66.40
38480;DHT22;62333;51.980;5.934;2023-04-25T09:32:20;12.80;65.90
38480;DHT22;62333;51.980;5.934;2023-04-25T09:34:53;12.70;65.50
38480;DHT22;62333;51.980;5.934;2023-04-25T09:37:22;12.70;65.70
38480;DHT22;62333;51.980;5.934;2023-04-25T09:39:55;12.60;65.30
38480;DHT22;62333;51.980;5.934;2023-04-25T09:42:25;12.60;64.80
38480;DHT22;62333;51.980;5.934;2023-04-25T09:44:53;12.60;64.90
38480;DHT22;62333;51.980;5.934;2023-04-25T09:47:20;12.70;65.30
38480;DHT22;62333;51.980;5.934;2023-04-25T09:49:49;12.90;65.20
38480;DHT22;62333;51.980;5.934;2023-04-25T09:52:16;13.20;65.00
38480;DHT22;62333;51.980;5.934;2023-04-25T09:54:44;13.40;63.60
38480;DHT22;62333;51.980;5.934;2023-04-25T09:57:18;13.60;62.50
38480;DHT22;62333;51.980;5.934;2023-04-25T09:59:49;13.80;62.10
38480;DHT22;62333;51.980;5.934;2023-04-25T10:02:19;14.00;62.00
38480;DHT22;62333;51.980;5.934;2023-04-25T10:04:50;14.30;61.60
38480;DHT22;62333;51.980;5.934;2023-04-25T10:07:18;14.50;61.20
38480;DHT22;62333;51.980;5.934;2023-04-25T10:09:48;14.80;60.50
38480;DHT22;62333;51.980;5.934;2023-04-25T10:12:15;15.00;59.90
38480;DHT22;62333;51.980;5.934;2023-04-25T10:14:42;15.30;59.30
38480;DHT22;62333;51.980;5.934;2023-04-25T10:17:10;15.40;58.50
38480;DHT22;62333;51.980;5.934;2023-04-25T10:19:37;15.40;58.40
38480;DHT22;62333;51.980;5.934;2023-04-25T10:24:51;15.30;57.30
38480;DHT22;62333;51.980;5.934;2023-04-25T10:27:18;15.20;56.00
38480;DHT22;62333;51.980;5.934;2023-04-25T10:29:44;15.00;56.50
38480;DHT22;62333;51.980;5.934;2023-04-25T10:32:10;14.90;56.10
38480;DHT22;62333;51.980;5.934;2023-04-25T10:34:41;15.00;56.60
38480;DHT22;62333;51.980;5.934;2023-04-25T10:37:10;15.10;55.60
38480;DHT22;62333;51.980;5.934;2023-04-25T10:39:41;15.00;54.40
38480;DHT22;62333;51.980;5.934;2023-04-25T10:42:07;14.80;53.40
38480;DHT22;62333;51.980;5.934;2023-04-25T10:44:33;14.70;54.40
38480;DHT22;62333;51.980;5.934;2023-04-25T10:47:01;14.50;55.50
38480;DHT22;62333;51.980;5.934;2023-04-25T10:49:33;14.40;56.30
38480;DHT22;62333;51.980;5.934;2023-04-25T10:54:46;14.30;58.80
38480;DHT22;62333;51.980;5.934;2023-04-25T10:59:58;14.40;60.10
38480;DHT22;62333;51.980;5.934;2023-04-25T11:02:27;14.50;60.30
38480;DHT22;62333;51.980;5.934;2023-04-25T11:04:54;14.50;60.20
38480;DHT22;62333;51.980;5.934;2023-04-25T11:07:33;14.60;60.20
38480;DHT22;62333;51.980;5.934;2023-04-25T11:10:04;14.70;60.00
38480;DHT22;62333;51.980;5.934;2023-04-25T11:12:31;14.80;59.90
38480;DHT22;62333;51.980;5.934;2023-04-25T11:15:04;14.90;59.90
38480;DHT22;62333;51.980;5.934;2023-04-25T11:17:31;15.10;59.30
38480;DHT22;62333;51.980;5.934;2023-04-25T11:19:57;15.20;59.00
38480;DHT22;62333;51.980;5.934;2023-04-25T11:22:23;15.40;58.60
38480;DHT22;62333;51.980;5.934;2023-04-25T11:24:48;15.70;58.40
38480;DHT22;62333;51.980;5.934;2023-04-25T11:27:14;15.90;58.30
38480;DHT22;62333;51.980;5.934;2023-04-25T11:29:40;16.10;57.80
38480;DHT22;62333;51.980;5.934;2023-04-25T11:32:07;16.10;57.30
38480;DHT22;62333;51.980;5.934;2023-04-25T11:34:33;16.10;57.30
38480;DHT22;62333;51.980;5.934;2023-04-25T11:37:00;16.40;56.20
38480;DHT22;62333;51.980;5.934;2023-04-25T11:39:27;16.60;55.30
38480;DHT22;62333;51.980;5.934;2023-04-25T11:41:54;17.00;54.30
38480;DHT22;62333;51.980;5.934;2023-04-25T11:44:21;17.20;53.40
38480;DHT22;62333;51.980;5.934;2023-04-25T11:46:47;17.50;51.90
38480;DHT22;62333;51.980;5.934;2023-04-25T11:49:14;17.80;51.00
38480;DHT22;62333;51.980;5.934;2023-04-25T11:51:45;18.00;49.80
38480;DHT22;62333;51.980;5.934;2023-04-25T11:54:11;18.20;49.70
38480;DHT22;62333;51.980;5.934;2023-04-25T11:56:40;18.50;49.30
38480;DHT22;62333;51.980;5.934;2023-04-25T11:59:06;18.80;48.10
38480;DHT22;62333;51.980;5.934;2023-04-25T12:01:33;19.00;47.50
38480;DHT22;62333;51.980;5.934;2023-04-25T12:04:14;19.10;46.30
38480;DHT22;62333;51.980;5.934;2023-04-25T12:06:41;19.20;46.10
38480;DHT22;62333;51.980;5.934;2023-04-25T12:09:09;19.40;46.10
38480;DHT22;62333;51.980;5.934;2023-04-25T12:11:46;19.50;45.60
38480;DHT22;62333;51.980;5.934;2023-04-25T12:14:23;19.30;44.30
38480;DHT22;62333;51.980;5.934;2023-04-25T12:16:50;19.10;44.50
38480;DHT22;62333;51.980;5.934;2023-04-25T12:19:20;18.70;45.20
38480;DHT22;62333;51.980;5.934;2023-04-25T12:21:47;18.30;45.60
38480;DHT22;62333;51.980;5.934;2023-04-25T12:24:17;17.80;46.30
38480;DHT22;62333;51.980;5.934;2023-04-25T12:27:04;17.50;47.20
38480;DHT22;62333;51.980;5.934;2023-04-25T12:29:32;17.10;47.90
38480;DHT22;62333;51.980;5.934;2023-04-25T12:31:58;16.80;48.60
38480;DHT22;62333;51.980;5.934;2023-04-25T12:34:25;16.50;49.20
38480;DHT22;62333;51.980;5.934;2023-04-25T12:36:51;16.30;49.70
38480;DHT22;62333;51.980;5.934;2023-04-25T12:39:21;16.10;50.20
38480;DHT22;62333;51.980;5.934;2023-04-25T12:41:48;15.90;50.40
38480;DHT22;62333;51.980;5.934;2023-04-25T12:44:14;15.70;50.60
38480;DHT22;62333;51.980;5.934;2023-04-25T12:46:40;15.50;50.70
38480;DHT22;62333;51.980;5.934;2023-04-25T12:49:07;15.40;50.80
38480;DHT22;62333;51.980;5.934;2023-04-25T12:51:34;15.20;51.10
38480;DHT22;62333;51.980;5.934;2023-04-25T12:54:00;15.10;51.30
38480;DHT22;62333;51.980;5.934;2023-04-25T12:56:29;15.10;51.70
38480;DHT22;62333;51.980;5.934;2023-04-25T12:58:55;15.00;51.80
38480;DHT22;62333;51.980;5.934;2023-04-25T13:01:21;15.00;52.10
38480;DHT22;62333;51.980;5.934;2023-04-25T13:03:47;15.10;52.30
38480;DHT22;62333;51.980;5.934;2023-04-25T13:06:14;15.30;52.30
38480;DHT22;62333;51.980;5.934;2023-04-25T13:08:40;15.40;52.00
38480;DHT22;62333;51.980;5.934;2023-04-25T13:11:07;15.50;51.80
38480;DHT22;62333;51.980;5.934;2023-04-25T13:13:33;15.90;51.60
38480;DHT22;62333;51.980;5.934;2023-04-25T13:16:01;16.20;50.70
38480;DHT22;62333;51.980;5.934;2023-04-25T13:18:27;16.90;50.40
38480;DHT22;62333;51.980;5.934;2023-04-25T13:20:53;17.70;49.30
38480;DHT22;62333;51.980;5.934;2023-04-25T13:23:20;18.20;47.80
38480;DHT22;62333;51.980;5.934;2023-04-25T13:25:46;18.50;47.10
38480;DHT22;62333;51.980;5.934;2023-04-25T13:28:12;18.50;47.10
38480;DHT22;62333;51.980;5.934;2023-04-25T13:30:39;18.50;47.00
38480;DHT22;62333;51.980;5.934;2023-04-25T13:33:05;18.60;46.70
38480;DHT22;62333;51.980;5.934;2023-04-25T13:35:33;19.00;45.80
38480;DHT22;62333;51.980;5.934;2023-04-25T13:37:59;19.30;45.10
38480;DHT22;62333;51.980;5.934;2023-04-25T13:40:26;19.50;43.50
38480;DHT22;62333;51.980;5.934;2023-04-25T13:42:52;19.50;43.20
38480;DHT22;62333;51.980;5.934;2023-04-25T13:45:19;19.40;43.10
38480;DHT22;62333;51.980;5.934;2023-04-25T13:47:45;19.50;43.30
38480;DHT22;62333;51.980;5.934;2023-04-25T13:50:11;19.90;43.20
38480;DHT22;62333;51.980;5.934;2023-04-25T13:52:36;20.50;42.70
38480;DHT22;62333;51.980;5.934;2023-04-25T13:55:02;21.10;41.60
38480;DHT22;62333;51.980;5.934;2023-04-25T13:57:30;21.80;40.80
38480;DHT22;62333;51.980;5.934;2023-04-25T13:59:56;22.20;39.60
38480;DHT22;62333;51.980;5.934;2023-04-25T14:02:22;22.10;38.60
38480;DHT22;62333;51.980;5.934;2023-04-25T14:04:47;21.80;39.00
38480;DHT22;62333;51.980;5.934;2023-04-25T14:07:14;21.40;39.20
38480;DHT22;62333;51.980;5.934;2023-04-25T14:09:41;21.40;39.70
38480;DHT22;62333;51.980;5.934;2023-04-25T14:12:07;21.40;39.90
38480;DHT22;62333;51.980;5.934;2023-04-25T14:14:33;21.40;39.90
38480;DHT22;62333;51.980;5.934;2023-04-25T14:16:59;21.40;39.40
38480;DHT22;62333;51.980;5.934;2023-04-25T14:19:24;21.40;39.50
38480;DHT22;62333;51.980;5.934;2023-04-25T14:21:50;21.20;39.50
38480;DHT22;62333;51.980;5.934;2023-04-25T14:24:16;21.00;39.60
38480;DHT22;62333;51.980;5.934;2023-04-25T14:26:42;20.60;40.00
38480;DHT22;62333;51.980;5.934;2023-04-25T14:29:08;20.20;40.00
38480;DHT22;62333;51.980;5.934;2023-04-25T14:31:37;19.70;40.40
38480;DHT22;62333;51.980;5.934;2023-04-25T14:34:04;19.20;40.40
38480;DHT22;62333;51.980;5.934;2023-04-25T14:36:31;18.70;40.60
38480;DHT22;62333;51.980;5.934;2023-04-25T14:38:57;18.30;40.70
38480;DHT22;62333;51.980;5.934;2023-04-25T14:41:25;18.00;41.80
38480;DHT22;62333;51.980;5.934;2023-04-25T14:43:52;17.70;41.50
38480;DHT22;62333;51.980;5.934;2023-04-25T14:46:22;17.50;41.80
38480;DHT22;62333;51.980;5.934;2023-04-25T14:48:49;17.40;42.00
38480;DHT22;62333;51.980;5.934;2023-04-25T14:51:14;17.20;42.10
38480;DHT22;62333;51.980;5.934;2023-04-25T14:53:41;17.00;42.30
38480;DHT22;62333;51.980;5.934;2023-04-25T14:56:07;16.80;42.50
38480;DHT22;62333;51.980;5.934;2023-04-25T14:58:34;16.70;42.70
38480;DHT22;62333;51.980;5.934;2023-04-25T15:01:00;16.50;42.40
38480;DHT22;62333;51.980;5.934;2023-04-25T15:03:26;16.30;42.50
38480;DHT22;62333;51.980;5.934;2023-04-25T15:05:54;16.10;42.90
38480;DHT22;62333;51.980;5.934;2023-04-25T15:08:20;16.00;43.50
38480;DHT22;62333;51.980;5.934;2023-04-25T15:10:46;15.80;44.00
38480;DHT22;62333;51.980;5.934;2023-04-25T15:13:12;15.80;44.50
38480;DHT22;62333;51.980;5.934;2023-04-25T15:15:38;15.70;44.70
38480;DHT22;62333;51.980;5.934;2023-04-25T15:18:03;15.60;44.50
38480;DHT22;62333;51.980;5.934;2023-04-25T15:20:29;15.50;44.30
38480;DHT22;62333;51.980;5.934;2023-04-25T15:22:55;15.40;44.10
38480;DHT22;62333;51.980;5.934;2023-04-25T15:25:21;15.40;44.00
38480;DHT22;62333;51.980;5.934;2023-04-25T15:27:46;15.30;44.10
38480;DHT22;62333;51.980;5.934;2023-04-25T15:30:15;15.30;44.30
38480;DHT22;62333;51.980;5.934;2023-04-25T15:32:42;15.30;44.50
38480;DHT22;62333;51.980;5.934;2023-04-25T15:35:08;15.20;44.90
38480;DHT22;62333;51.980;5.934;2023-04-25T15:37:36;15.10;45.30
38480;DHT22;62333;51.980;5.934;2023-04-25T15:40:04;15.00;45.80
38480;DHT22;62333;51.980;5.934;2023-04-25T15:42:38;14.90;46.40
38480;DHT22;62333;51.980;5.934;2023-04-25T15:45:05;14.80;46.90